Time;durP1;ratioP1;P1;durP2;ratioP2;P2;SDS_P1;SDS_P2;PMS_P1;PMS_P2;Temp;Humidity;BMP_temperature;BMP_pressure;BME280_temperature;BME280_humidity;BME280_pressure;Samples;Min_cycle;Max_cycle;Signal;HPM_P1;HPM_P2
2021/08/25 00:01:32;;;;;;;4.70;3.60;;;11.90;99.90;;;;;;5012045;28;20241;-69
2021/08/25 00:03:57;;;;;;;4.27;3.50;;;11.80;99.90;;;;;;5012203;28;20715;-69
2021/08/25 00:06:23;;;;;;;5.07;3.20;;;11.80;99.90;;;;;;5012235;28;20517;-69
2021/08/25 00:08:48;;;;;;;4.87;3.67;;;11.80;99.90;;;;;;5011970;28;20168;-69
2021/08/25 00:11:14;;;;;;;5.47;3.97;;;11.80;99.90;;;;;;5012115;28;20164;-70
2021/08/25 00:13:39;;;;;;;4.27;3.37;;;11.80;99.90;;;;;;5011853;28;20207;-69
2021/08/25 00:16:05;;;;;;;8.13;3.70;;;11.70;99.90;;;;;;5011995;28;20160;-69
2021/08/25 00:18:30;;;;;;;8.03;4.43;;;11.80;99.90;;;;;;5011772;28;20262;-69
2021/08/25 00:20:57;;;;;;;7.40;3.70;;;11.70;99.90;;;;;;5012136;28;20173;-69
2021/08/25 00:23:22;;;;;;;5.43;3.90;;;11.70;99.90;;;;;;5012304;28;20192;-70
2021/08/25 00:25:48;;;;;;;5.73;3.90;;;11.70;99.90;;;;;;5012325;28;20417;-70
2021/08/25 00:28:13;;;;;;;7.23;3.60;;;11.60;99.90;;;;;;5012353;28;20172;-71
2021/08/25 00:30:39;;;;;;;4.17;3.50;;;11.60;99.90;;;;;;5012443;28;20168;-69
2021/08/25 00:33:04;;;;;;;4.77;3.30;;;11.60;99.90;;;;;;5012190;28;20192;-69
2021/08/25 00:35:30;;;;;;;5.60;3.63;;;11.60;99.90;;;;;;5012075;28;20207;-69
2021/08/25 00:37:55;;;;;;;6.07;3.30;;;11.50;99.90;;;;;;5012268;28;20349;-69
2021/08/25 00:40:21;;;;;;;5.50;3.43;;;11.50;99.90;;;;;;5011693;28;20168;-70
2021/08/25 00:42:46;;;;;;;6.07;3.83;;;11.50;99.90;;;;;;5013206;28;20648;-70
2021/08/25 00:45:12;;;;;;;9.43;4.57;;;11.50;99.90;;;;;;5013626;28;20234;-69
2021/08/25 00:47:39;;;;;;;5.63;3.80;;;11.60;99.90;;;;;;5013078;28;20165;-69
2021/08/25 00:50:06;;;;;;;4.50;2.90;;;11.50;99.90;;;;;;5010865;28;20255;-69
2021/08/25 00:52:33;;;;;;;7.20;3.70;;;11.50;99.90;;;;;;5011183;28;20447;-69
2021/08/25 00:55:00;;;;;;;6.67;3.57;;;11.40;99.90;;;;;;5011659;28;20435;-69
2021/08/25 00:57:26;;;;;;;5.30;3.10;;;11.40;99.90;;;;;;5011444;28;20843;-69
2021/08/25 00:59:52;;;;;;;4.17;3.00;;;11.40;99.90;;;;;;5011925;28;20407;-70
2021/08/25 01:02:30;;;;;;;5.10;3.37;;;11.50;99.90;;;;;;5014527;28;20192;-70
2021/08/25 01:04:59;;;;;;;5.13;4.10;;;11.40;99.90;;;;;;5015784;28;20457;-69
2021/08/25 01:07:28;;;;;;;7.20;3.37;;;11.40;99.90;;;;;;5015527;28;20466;-70
2021/08/25 01:09:55;;;;;;;4.57;3.47;;;11.40;99.90;;;;;;5015751;28;20411;-70
2021/08/25 01:12:21;;;;;;;5.80;3.57;;;11.40;99.90;;;;;;5015335;28;20526;-70
2021/08/25 01:14:47;;;;;;;4.60;3.47;;;11.40;99.90;;;;;;5015334;28;20404;-70
2021/08/25 01:17:13;;;;;;;5.10;3.57;;;11.30;99.90;;;;;;5015156;28;20994;-70
2021/08/25 01:19:52;;;;;;;6.67;3.77;;;11.30;99.90;;;;;;5015734;28;20226;-70
2021/08/25 01:22:20;;;;;;;8.67;4.17;;;11.30;99.90;;;;;;5015225;28;20427;-70
2021/08/25 01:24:48;;;;;;;3.83;3.43;;;11.20;99.90;;;;;;5015149;28;20402;-70
2021/08/25 01:27:15;;;;;;;6.60;3.70;;;11.10;99.90;;;;;;5012074;28;20918;-70
2021/08/25 01:29:41;;;;;;;5.40;3.50;;;11.10;99.90;;;;;;5015172;28;20477;-69
2021/08/25 01:32:06;;;;;;;5.90;3.97;;;11.10;99.90;;;;;;5015086;28;20664;-70
2021/08/25 01:34:57;;;;;;;5.77;4.23;;;11.20;99.90;;;;;;5015339;28;20179;-70
2021/08/25 01:37:24;;;;;;;4.83;3.43;;;11.10;99.90;;;;;;5013774;28;20652;-70
2021/08/25 01:39:51;;;;;;;5.43;4.03;;;11.10;99.90;;;;;;5015577;28;20769;-70
2021/08/25 01:42:19;;;;;;;7.37;3.70;;;11.10;99.90;;;;;;5014872;28;20430;-69
2021/08/25 01:44:45;;;;;;;8.30;3.70;;;11.00;99.90;;;;;;5014989;28;20486;-69
2021/08/25 01:47:12;;;;;;;6.03;3.90;;;11.10;99.90;;;;;;5015195;28;20435;-70
2021/08/25 01:49:37;;;;;;;6.83;3.73;;;11.10;99.90;;;;;;5015202;28;20411;-69
2021/08/25 01:52:04;;;;;;;4.47;3.70;;;11.00;99.90;;;;;;5014793;28;20990;-69
2021/08/25 01:54:29;;;;;;;3.43;3.13;;;11.10;99.90;;;;;;5015024;28;20200;-70
2021/08/25 01:56:55;;;;;;;4.83;3.40;;;11.00;99.90;;;;;;5014638;28;20498;-70
2021/08/25 01:59:21;;;;;;;5.23;3.53;;;11.00;99.90;;;;;;5014528;28;20180;-70
2021/08/25 02:01:46;;;;;;;4.47;3.03;;;11.00;99.90;;;;;;5014552;28;20168;-70
2021/08/25 02:04:11;;;;;;;4.70;4.20;;;10.90;99.90;;;;;;5014348;28;20659;-70
2021/08/25 02:06:37;;;;;;;4.70;3.33;;;10.80;99.90;;;;;;5014451;28;20168;-70
2021/08/25 02:09:03;;;;;;;5.53;3.63;;;10.80;99.90;;;;;;5014334;28;20183;-70
2021/08/25 02:11:28;;;;;;;5.60;3.90;;;10.80;99.90;;;;;;5013860;28;20238;-70
2021/08/25 02:13:54;;;;;;;4.03;2.57;;;10.80;99.90;;;;;;5014312;28;20436;-70
2021/08/25 02:16:20;;;;;;;4.00;3.17;;;10.70;99.90;;;;;;5014442;28;20183;-69
2021/08/25 02:18:46;;;;;;;6.90;4.03;;;10.70;99.90;;;;;;5014033;28;20192;-69
2021/08/25 02:21:12;;;;;;;5.20;3.63;;;10.70;99.90;;;;;;5013999;28;20164;-69
2021/08/25 02:23:37;;;;;;;6.07;3.83;;;10.60;99.90;;;;;;5014091;28;20461;-69
2021/08/25 02:26:03;;;;;;;5.03;3.90;;;10.60;99.90;;;;;;5014007;28;20180;-71
2021/08/25 02:28:29;;;;;;;6.37;3.80;;;10.50;99.90;;;;;;5014309;28;20180;-69
2021/08/25 02:30:55;;;;;;;9.60;4.23;;;10.50;99.90;;;;;;5013808;28;20454;-70
2021/08/25 02:33:20;;;;;;;5.00;3.60;;;10.50;99.90;;;;;;5013701;28;20294;-70
2021/08/25 02:35:46;;;;;;;5.80;4.00;;;10.50;99.90;;;;;;5014187;28;20180;-69
2021/08/25 02:38:11;;;;;;;4.70;4.10;;;10.50;99.90;;;;;;5013733;28;20284;-70
2021/08/25 02:40:37;;;;;;;6.57;4.23;;;10.40;99.90;;;;;;5013774;28;20176;-70
2021/08/25 02:43:03;;;;;;;8.33;4.57;;;10.40;99.90;;;;;;5013510;28;20248;-69
2021/08/25 02:45:28;;;;;;;9.73;5.03;;;10.40;99.90;;;;;;5013658;28;20487;-69
2021/08/25 02:47:54;;;;;;;6.73;4.20;;;10.40;99.90;;;;;;5013410;28;20574;-69
2021/08/25 02:50:19;;;;;;;5.43;4.50;;;10.40;99.90;;;;;;5013685;28;20177;-70
2021/08/25 02:52:45;;;;;;;4.83;4.33;;;10.40;99.90;;;;;;5013282;28;20275;-70
2021/08/25 02:55:10;;;;;;;7.03;4.07;;;10.40;99.90;;;;;;5013583;28;20171;-70
2021/08/25 02:57:36;;;;;;;6.77;4.17;;;10.40;99.90;;;;;;5013264;28;20192;-70
2021/08/25 03:00:04;;;;;;;5.20;3.47;;;10.30;99.90;;;;;;5013365;28;20176;-70
2021/08/25 03:02:29;;;;;;;6.83;4.47;;;10.30;99.90;;;;;;5013276;28;20727;-70
2021/08/25 03:04:55;;;;;;;5.47;4.13;;;10.20;99.90;;;;;;5013283;28;20485;-70
2021/08/25 03:07:20;;;;;;;6.27;4.10;;;10.20;99.90;;;;;;5013028;28;20175;-70
2021/08/25 03:09:46;;;;;;;6.23;4.17;;;10.20;99.90;;;;;;5013143;28;20255;-70
2021/08/25 03:12:11;;;;;;;6.93;4.20;;;10.10;99.90;;;;;;5012851;28;20473;-70
2021/08/25 03:14:36;;;;;;;6.83;4.70;;;10.10;99.90;;;;;;5013051;28;20168;-70
2021/08/25 03:17:02;;;;;;;8.03;4.37;;;10.10;99.90;;;;;;5012848;28;20372;-70
2021/08/25 03:19:28;;;;;;;7.10;4.60;;;10.10;99.90;;;;;;5013223;28;20202;-70
2021/08/25 03:21:54;;;;;;;6.50;4.10;;;10.10;99.90;;;;;;5012774;28;20595;-70
2021/08/25 03:24:19;;;;;;;6.43;4.20;;;10.00;99.90;;;;;;5012042;28;20168;-70
2021/08/25 03:26:45;;;;;;;5.27;4.23;;;10.00;99.90;;;;;;5011895;28;20414;-70
2021/08/25 03:29:10;;;;;;;5.80;4.77;;;9.90;99.90;;;;;;5012813;28;20219;-70
2021/08/25 03:31:36;;;;;;;7.63;4.83;;;9.90;99.90;;;;;;5012621;28;20707;-70
2021/08/25 03:34:01;;;;;;;6.40;4.60;;;10.10;99.90;;;;;;5013012;28;20255;-70
2021/08/25 03:36:27;;;;;;;6.00;4.57;;;10.10;99.90;;;;;;5011880;28;20486;-70
2021/08/25 03:38:52;;;;;;;8.10;4.30;;;10.10;99.90;;;;;;5012413;28;20669;-70
2021/08/25 03:41:18;;;;;;;5.67;4.07;;;10.00;99.90;;;;;;5012915;28;20219;-70
2021/08/25 03:43:43;;;;;;;5.17;3.77;;;10.00;99.90;;;;;;5012491;28;20188;-70
2021/08/25 03:46:10;;;;;;;6.57;4.17;;;10.00;99.90;;;;;;5012278;28;20199;-70
2021/08/25 03:48:36;;;;;;;7.23;4.60;;;10.00;99.90;;;;;;5012328;28;20644;-70
2021/08/25 03:51:01;;;;;;;7.47;4.80;;;10.00;99.90;;;;;;5012444;28;20411;-71
2021/08/25 03:53:27;;;;;;;6.00;4.23;;;10.00;99.90;;;;;;5012171;28;20641;-70
2021/08/25 03:55:52;;;;;;;6.27;4.10;;;10.00;99.90;;;;;;5012243;28;20250;-70
2021/08/25 03:58:18;;;;;;;6.47;4.43;;;10.00;99.90;;;;;;5012179;28;20198;-70
2021/08/25 04:00:43;;;;;;;6.17;3.80;;;9.90;99.90;;;;;;5012102;28;20172;-71
2021/08/25 04:03:09;;;;;;;9.40;4.87;;;9.90;99.90;;;;;;5011490;28;20215;-70
2021/08/25 04:05:34;;;;;;;5.10;4.60;;;9.80;99.90;;;;;;4975830;28;20192;-70
2021/08/25 04:08:00;;;;;;;5.30;4.00;;;9.80;99.90;;;;;;4991484;28;20562;-70
2021/08/25 04:10:25;;;;;;;7.93;4.73;;;9.80;99.90;;;;;;4992871;28;20255;-71
2021/08/25 04:12:50;;;;;;;4.40;3.90;;;9.80;99.90;;;;;;4992379;28;20212;-71
2021/08/25 04:15:16;;;;;;;7.43;4.20;;;9.80;99.90;;;;;;4992206;28;20181;-71
2021/08/25 04:17:41;;;;;;;6.00;4.60;;;10.00;99.90;;;;;;4992401;28;20683;-69
2021/08/25 04:20:08;;;;;;;6.87;4.20;;;9.90;99.90;;;;;;4990910;28;20200;-71
2021/08/25 04:22:33;;;;;;;5.10;4.60;;;9.90;99.90;;;;;;4992329;28;20573;-71
2021/08/25 04:24:58;;;;;;;6.53;4.60;;;9.80;99.90;;;;;;4992072;28;20528;-70
2021/08/25 04:27:24;;;;;;;7.40;5.00;;;9.80;99.90;;;;;;4992244;28;20638;-70
2021/08/25 04:29:50;;;;;;;9.00;5.73;;;9.90;99.90;;;;;;4992098;28;20252;-70
2021/08/25 04:32:15;;;;;;;7.97;4.10;;;10.00;99.90;;;;;;4990745;28;20201;-70
2021/08/25 04:34:41;;;;;;;5.80;4.80;;;10.00;99.90;;;;;;4992038;28;20176;-70
2021/08/25 04:37:06;;;;;;;7.67;5.47;;;10.00;99.90;;;;;;4991940;28;20227;-70
2021/08/25 04:39:32;;;;;;;7.63;4.97;;;10.00;99.90;;;;;;4992183;28;20177;-70
2021/08/25 04:41:57;;;;;;;6.73;4.60;;;10.00;99.90;;;;;;4992147;28;20216;-70
2021/08/25 04:44:23;;;;;;;6.17;4.40;;;10.10;99.90;;;;;;4992137;28;20290;-70
2021/08/25 04:46:48;;;;;;;7.70;4.67;;;10.10;99.90;;;;;;4974312;28;20180;-70
2021/08/25 04:49:14;;;;;;;6.70;4.53;;;10.20;99.90;;;;;;4992217;28;20603;-70
2021/08/25 04:51:39;;;;;;;7.90;4.67;;;10.20;99.90;;;;;;4991678;28;20171;-70
2021/08/25 04:54:05;;;;;;;5.27;4.77;;;10.20;99.90;;;;;;4991912;28;20646;-70
2021/08/25 04:56:30;;;;;;;6.00;4.80;;;10.40;99.90;;;;;;4992008;28;20502;-70
2021/08/25 04:58:56;;;;;;;5.70;5.03;;;10.50;99.90;;;;;;4991744;28;20204;-70
2021/08/25 05:01:21;;;;;;;8.70;5.40;;;10.60;99.90;;;;;;4991779;28;20640;-70
2021/08/25 05:03:47;;;;;;;8.83;5.23;;;10.60;99.90;;;;;;4991978;28;20605;-70
2021/08/25 05:06:12;;;;;;;5.33;3.90;;;10.60;99.90;;;;;;4992238;28;20253;-71
2021/08/25 05:08:38;;;;;;;6.40;4.60;;;10.60;99.90;;;;;;4992048;28;20181;-70
2021/08/25 05:11:05;;;;;;;8.47;5.20;;;10.70;99.90;;;;;;4991926;28;20168;-70
2021/08/25 05:13:31;;;;;;;6.10;3.83;;;10.80;99.90;;;;;;4991915;28;20219;-70
2021/08/25 05:15:57;;;;;;;8.10;4.97;;;10.80;99.90;;;;;;4991806;28;20447;-70
2021/08/25 05:18:22;;;;;;;6.20;4.30;;;10.90;99.90;;;;;;4991869;28;20830;-70
2021/08/25 05:20:48;;;;;;;5.00;4.50;;;10.90;99.90;;;;;;4992035;28;20400;-70
2021/08/25 05:23:13;;;;;;;5.87;4.73;;;11.00;99.90;;;;;;4992572;28;20277;-70
2021/08/25 05:25:39;;;;;;;7.00;4.73;;;11.10;99.90;;;;;;4993114;28;20223;-70
2021/08/25 05:28:04;;;;;;;7.33;5.27;;;11.30;99.90;;;;;;4992495;28;20654;-70
2021/08/25 05:30:30;;;;;;;10.60;5.30;;;11.30;99.90;;;;;;4992597;28;20170;-70
2021/08/25 05:32:55;;;;;;;8.60;5.00;;;11.40;99.90;;;;;;4993341;28;20197;-70
2021/08/25 05:35:23;;;;;;;6.83;4.50;;;11.50;99.90;;;;;;4992921;28;20211;-70
2021/08/25 05:37:49;;;;;;;8.60;5.67;;;11.60;99.90;;;;;;4992583;28;20260;-70
2021/08/25 05:40:15;;;;;;;9.90;5.20;;;11.70;99.90;;;;;;4993093;28;20773;-70
2021/08/25 05:42:42;;;;;;;4.93;4.43;;;11.80;99.90;;;;;;4992750;28;20512;-70
2021/08/25 05:45:08;;;;;;;5.43;4.93;;;12.10;99.90;;;;;;4993382;28;20447;-71
2021/08/25 05:47:35;;;;;;;5.43;4.90;;;12.20;99.90;;;;;;4995146;28;20411;-70
2021/08/25 05:50:00;;;;;;;5.03;4.03;;;12.50;99.90;;;;;;4996718;28;20412;-71
2021/08/25 05:52:26;;;;;;;7.53;5.00;;;13.20;99.90;;;;;;4995120;28;20451;-70
2021/08/25 05:54:51;;;;;;;8.37;4.80;;;13.90;99.90;;;;;;4995124;28;20169;-70
2021/08/25 05:57:17;;;;;;;6.23;4.57;;;14.50;99.90;;;;;;4994555;28;20210;-70
2021/08/25 05:59:42;;;;;;;8.00;4.23;;;14.90;99.90;;;;;;4994862;28;20179;-70
2021/08/25 06:02:08;;;;;;;7.77;5.00;;;15.60;99.90;;;;;;4994767;28;20189;-71
2021/08/25 06:04:33;;;;;;;6.73;4.60;;;16.00;99.90;;;;;;4994726;28;20179;-70
2021/08/25 06:06:59;;;;;;;6.50;5.10;;;16.50;99.90;;;;;;4994678;28;20226;-70
2021/08/25 06:09:24;;;;;;;4.90;4.40;;;16.90;99.90;;;;;;4993961;28;20244;-70
2021/08/25 06:11:49;;;;;;;5.40;4.63;;;16.80;99.90;;;;;;4994401;28;20632;-70
2021/08/25 06:14:15;;;;;;;5.30;4.50;;;17.40;99.90;;;;;;4994343;28;20199;-70
2021/08/25 06:16:43;;;;;;;5.60;4.80;;;17.40;99.90;;;;;;4994471;28;20230;-70
2021/08/25 06:19:08;;;;;;;6.20;5.00;;;17.60;99.90;;;;;;4994566;28;20618;-70
2021/08/25 06:21:34;;;;;;;6.83;4.73;;;17.60;99.90;;;;;;4994283;28;20450;-70
2021/08/25 06:23:59;;;;;;;6.10;4.27;;;16.80;99.90;;;;;;4994397;28;20181;-70
2021/08/25 06:26:25;;;;;;;7.67;4.27;;;17.40;99.90;;;;;;4994243;28;20445;-70
2021/08/25 06:28:50;;;;;;;6.50;4.37;;;17.80;99.90;;;;;;4994218;28;20270;-70
2021/08/25 06:31:16;;;;;;;6.13;4.10;;;17.50;99.90;;;;;;4994209;28;20179;-71
2021/08/25 06:33:41;;;;;;;8.17;4.23;;;17.30;99.90;;;;;;4994314;28;20686;-70
2021/08/25 06:36:07;;;;;;;9.57;4.20;;;17.60;99.90;;;;;;4994184;28;20167;-70
2021/08/25 06:38:33;;;;;;;7.70;4.23;;;17.90;99.90;;;;;;4993976;28;20203;-70
2021/08/25 06:40:58;;;;;;;4.40;3.73;;;17.60;99.90;;;;;;4994577;28;20428;-69
2021/08/25 06:43:24;;;;;;;5.40;4.17;;;17.20;99.90;;;;;;4993876;28;20312;-71
2021/08/25 06:45:50;;;;;;;6.97;4.30;;;16.90;99.90;;;;;;4994140;28;20252;-69
2021/08/25 06:48:15;;;;;;;8.67;4.27;;;17.10;99.90;;;;;;4993958;28;20541;-69
2021/08/25 06:50:41;;;;;;;6.17;3.57;;;16.80;99.90;;;;;;4993904;28;20182;-70
2021/08/25 06:53:06;;;;;;;4.73;3.53;;;17.20;99.90;;;;;;4993827;28;20194;-70
2021/08/25 06:55:32;;;;;;;7.37;3.83;;;18.00;99.90;;;;;;4993771;28;20206;-69
2021/08/25 06:57:57;;;;;;;11.17;4.33;;;18.40;99.90;;;;;;4993513;28;20234;-70
2021/08/25 07:00:23;;;;;;;7.00;4.20;;;17.40;99.90;;;;;;4993801;28;20542;-69
2021/08/25 07:02:48;;;;;;;6.10;3.50;;;16.90;99.90;;;;;;4993666;28;20235;-69
2021/08/25 07:05:14;;;;;;;6.10;3.30;;;17.10;99.90;;;;;;4993779;28;20740;-70
2021/08/25 07:07:39;;;;;;;5.03;3.77;;;17.00;99.90;;;;;;4994315;28;20178;-70
2021/08/25 07:10:05;;;;;;;7.47;3.60;;;18.20;99.90;;;;;;4993923;28;20254;-70
2021/08/25 07:12:31;;;;;;;6.20;4.03;;;18.60;99.90;;;;;;4976691;28;20238;-69
2021/08/25 07:14:57;;;;;;;5.17;3.60;;;18.20;99.90;;;;;;4993404;28;20863;-70
2021/08/25 07:17:22;;;;;;;5.07;3.27;;;17.40;99.90;;;;;;4993076;28;20694;-69
2021/08/25 07:19:48;;;;;;;6.47;3.37;;;17.70;99.90;;;;;;5000387;28;20181;-70
2021/08/25 07:22:13;;;;;;;4.10;2.80;;;17.60;99.90;;;;;;5013147;28;20323;-69
2021/08/25 07:24:39;;;;;;;3.67;3.07;;;17.80;99.90;;;;;;5012897;28;20171;-69
2021/08/25 07:27:05;;;;;;;3.73;2.77;;;18.10;99.90;;;;;;5012920;28;20639;-69
2021/08/25 07:29:30;;;;;;;4.93;3.17;;;18.20;99.90;;;;;;5012748;28;20174;-70
2021/08/25 07:31:56;;;;;;;5.37;3.37;;;18.70;99.90;;;;;;5012828;28;20183;-70
2021/08/25 07:34:22;;;;;;;3.93;3.53;;;18.30;99.90;;;;;;5013012;28;20185;-70
2021/08/25 07:36:47;;;;;;;3.50;3.10;;;18.70;99.90;;;;;;5027873;28;20555;-70
2021/08/25 07:39:13;;;;;;;4.67;2.97;;;18.20;99.90;;;;;;5012738;28;20211;-71
2021/08/25 07:41:38;;;;;;;6.50;3.37;;;19.20;99.90;;;;;;5012397;28;20205;-71
2021/08/25 07:44:06;;;;;;;6.07;3.23;;;19.50;99.90;;;;;;5012664;28;20179;-71
2021/08/25 07:46:34;;;;;;;5.63;2.73;;;18.80;99.90;;;;;;5012507;28;20176;-71
2021/08/25 07:49:01;;;;;;;4.47;2.73;;;19.10;99.90;;;;;;5006728;28;20960;-71
2021/08/25 07:51:27;;;;;;;4.67;3.07;;;19.80;99.90;;;;;;5000753;28;20431;-71
2021/08/25 07:53:52;;;;;;;4.57;3.07;;;19.50;99.90;;;;;;5012204;28;20968;-70
2021/08/25 07:56:18;;;;;;;6.03;3.47;;;19.00;99.90;;;;;;4997457;28;20229;-70
2021/08/25 07:58:43;;;;;;;3.40;2.87;;;19.10;99.90;;;;;;4992378;28;20227;-71
2021/08/25 08:01:09;;;;;;;3.23;2.50;;;18.40;99.90;;;;;;4992692;28;20193;-69
2021/08/25 08:03:34;;;;;;;7.30;2.83;;;19.00;99.90;;;;;;4993843;28;20197;-70
2021/08/25 08:06:00;;;;;;;3.33;2.80;;;18.90;99.90;;;;;;4993448;28;20172;-68
2021/08/25 08:08:25;;;;;;;2.60;2.30;;;19.20;99.90;;;;;;5006445;28;20588;-67
2021/08/25 08:10:52;;;;;;;3.03;2.73;;;18.20;99.90;;;;;;4998119;28;20172;-69
2021/08/25 08:13:18;;;;;;;3.67;2.50;;;18.20;99.90;;;;;;5012017;28;20565;-67
2021/08/25 08:15:44;;;;;;;6.13;2.97;;;19.40;99.90;;;;;;5011971;28;20408;-67
2021/08/25 08:18:15;;;;;;;3.97;3.27;;;19.10;99.90;;;;;;5011755;28;20461;-67
2021/08/25 08:20:40;;;;;;;5.00;2.77;;;19.30;99.90;;;;;;5011812;28;20489;-67
2021/08/25 08:23:06;;;;;;;2.90;2.70;;;19.00;99.90;;;;;;4994072;28;21070;-68
2021/08/25 08:25:31;;;;;;;2.67;2.47;;;18.20;99.90;;;;;;5012150;28;20222;-69
2021/08/25 08:27:57;;;;;;;4.17;2.60;;;17.90;99.90;;;;;;5012155;28;20202;-69
2021/08/25 08:30:31;;;;;;;3.70;2.90;;;18.50;99.90;;;;;;5012188;28;20183;-68
2021/08/25 08:33:10;;;;;;;6.67;4.50;;;19.40;99.90;;;;;;5011710;28;20246;-69
2021/08/25 08:35:40;;;;;;;4.90;3.30;;;19.40;99.90;;;;;;5011752;28;20417;-70
2021/08/25 08:38:14;;;;;;;8.00;3.00;;;20.10;99.90;;;;;;5010251;28;20625;-67
2021/08/25 08:40:41;;;;;;;6.70;2.90;;;20.00;99.90;;;;;;5011313;28;20484;-67
2021/08/25 08:43:17;;;;;;;3.90;2.80;;;18.80;99.90;;;;;;5011366;28;20425;-68
2021/08/25 08:46:03;;;;;;;5.33;2.90;;;19.10;99.90;;;;;;5011368;28;20571;-68
2021/08/25 08:48:47;;;;;;;3.53;3.10;;;19.20;99.90;;;;;;5011261;28;20908;-69
2021/08/25 08:51:18;;;;;;;3.30;2.50;;;20.10;99.90;;;;;;4994595;28;20436;-70
2021/08/25 08:53:57;;;;;;;5.20;3.73;;;20.60;99.90;;;;;;5010127;28;20529;-68
2021/08/25 08:56:37;;;;;;;3.50;3.10;;;20.80;99.90;;;;;;5011740;28;20525;-70
2021/08/25 08:59:15;;;;;;;3.20;2.60;;;20.10;99.90;;;;;;5009869;28;20962;-68
2021/08/25 09:01:46;;;;;;;3.63;3.00;;;18.90;99.90;;;;;;5011257;28;20409;-68
2021/08/25 09:04:41;;;;;;;3.00;2.70;;;18.60;99.90;;;;;;5011412;28;20414;-69
2021/08/25 09:07:48;;;;;;;4.50;2.90;;;19.00;99.90;;;;;;5010651;28;20487;-69
2021/08/25 09:10:33;;;;;;;4.27;3.60;;;19.30;99.90;;;;;;4981698;28;20569;-68
2021/08/25 09:13:14;;;;;;;4.10;3.07;;;18.60;99.90;;;;;;5011250;28;21087;-68
2021/08/25 09:15:51;;;;;;;5.00;3.10;;;19.20;99.90;;;;;;4991874;28;20476;-68
2021/08/25 09:18:28;;;;;;;4.77;2.97;;;19.00;99.90;;;;;;4991539;28;20466;-69
2021/08/25 09:24:05;;;;;;;8.50;3.33;;;19.40;99.90;;;;;;4995005;28;20496;-68
2021/08/25 09:30:07;;;;;;;5.40;3.47;;;19.20;99.90;;;;;;4992419;28;20828;-68
2021/08/25 09:32:47;;;;;;;4.60;3.40;;;19.30;99.90;;;;;;4995263;28;20435;-71
2021/08/25 09:35:45;;;;;;;9.40;3.10;;;18.90;99.90;;;;;;4993889;28;20475;-68
2021/08/25 09:38:30;;;;;;;7.30;3.27;;;18.30;99.90;;;;;;4995260;28;20463;-69
2021/08/25 09:41:15;;;;;;;6.17;3.40;;;18.70;99.90;;;;;;4995232;28;20524;-69
2021/08/25 09:43:54;;;;;;;5.23;3.97;;;19.00;99.90;;;;;;4995479;28;20481;-69
2021/08/25 09:46:29;;;;;;;5.03;3.23;;;19.00;99.90;;;;;;4995293;28;20513;-70
2021/08/25 09:49:00;;;;;;;9.47;3.90;;;18.80;99.90;;;;;;4995069;28;21010;-70
2021/08/25 09:55:12;;;;;;;3.90;2.87;;;18.90;99.90;;;;;;5007816;28;20786;-68
2021/08/25 09:57:59;;;;;;;4.73;3.47;;;19.20;99.90;;;;;;5014250;28;20538;-70
2021/08/25 10:00:25;;;;;;;3.37;2.90;;;18.80;99.90;;;;;;5013319;28;20441;-69
2021/08/25 10:03:19;;;;;;;5.07;3.10;;;18.50;99.90;;;;;;5014023;28;20433;-71
2021/08/25 10:05:52;;;;;;;5.23;2.77;;;18.40;99.90;;;;;;5014418;28;20420;-72
2021/08/25 10:08:24;;;;;;;4.10;3.67;;;18.50;99.90;;;;;;5014610;28;20454;-71
2021/08/25 10:10:59;;;;;;;3.80;3.10;;;18.10;99.90;;;;;;5014304;28;20411;-70
2021/08/25 10:13:29;;;;;;;4.70;3.83;;;18.20;99.90;;;;;;5014063;28;20458;-70
2021/08/25 10:16:21;;;;;;;8.23;3.00;;;18.70;99.90;;;;;;5010880;28;20438;-69
2021/08/25 10:18:51;;;;;;;4.30;3.20;;;18.60;99.90;;;;;;5008967;28;20580;-68
2021/08/25 10:21:41;;;;;;;5.90;3.83;;;18.40;99.90;;;;;;5013663;28;20408;-67
2021/08/25 10:24:09;;;;;;;4.60;3.17;;;17.90;99.90;;;;;;5001670;28;20419;-68
2021/08/25 10:26:59;;;;;;;4.37;3.30;;;17.90;99.90;;;;;;5014941;28;20780;-70
2021/08/25 10:29:36;;;;;;;2.60;2.30;;;18.00;99.90;;;;;;5014518;28;20974;-69
2021/08/25 10:32:02;;;;;;;4.83;3.20;;;18.00;99.90;;;;;;5014542;28;20423;-68
2021/08/25 10:34:38;;;;;;;3.80;3.20;;;18.20;99.90;;;;;;4996710;28;20406;-69
2021/08/25 10:37:26;;;;;;;5.10;3.17;;;18.10;99.90;;;;;;5014029;28;20186;-69
2021/08/25 10:40:02;;;;;;;9.30;2.67;;;18.30;99.90;;;;;;5015484;28;20893;-70
2021/08/25 10:42:51;;;;;;;4.43;2.90;;;18.20;99.90;;;;;;5015534;28;20503;-69
2021/08/25 10:45:55;;;;;;;5.53;3.13;;;18.20;99.90;;;;;;5014557;28;20416;-68
2021/08/25 10:48:42;;;;;;;5.13;3.20;;;17.90;99.90;;;;;;5013644;28;20898;-67
2021/08/25 10:51:40;;;;;;;5.60;3.50;;;18.10;99.90;;;;;;5013215;28;20415;-67
2021/08/25 10:54:15;;;;;;;5.17;2.80;;;18.20;99.90;;;;;;5011053;28;20435;-69
2021/08/25 10:56:47;;;;;;;4.03;3.40;;;18.20;99.90;;;;;;5013623;28;20415;-68
2021/08/25 10:59:20;;;;;;;3.47;3.17;;;18.40;99.90;;;;;;5013423;28;20462;-67
2021/08/25 11:01:51;;;;;;;5.63;3.20;;;18.50;99.90;;;;;;5013085;28;20490;-69
2021/08/25 11:04:28;;;;;;;4.80;3.37;;;18.50;99.90;;;;;;5013571;28;20404;-68
2021/08/25 11:07:10;;;;;;;9.47;3.10;;;18.50;99.90;;;;;;5012993;28;20441;-67
2021/08/25 11:09:45;;;;;;;6.40;2.80;;;18.70;99.90;;;;;;5013176;28;20402;-67
2021/08/25 11:12:48;;;;;;;3.77;3.23;;;18.70;99.90;;;;;;5013069;28;20428;-68
2021/08/25 11:15:20;;;;;;;5.03;3.90;;;18.70;99.90;;;;;;5012853;28;20423;-67
2021/08/25 11:17:56;;;;;;;3.80;3.00;;;19.00;99.90;;;;;;5012695;28;20452;-67
2021/08/25 11:20:32;;;;;;;;;;;;;;;;;;;;;
2021/08/25 11:23:05;;;;;;;4.00;2.80;;;19.90;99.90;;;;;;5012061;28;20421;-69
2021/08/25 11:25:35;;;;;;;3.90;2.90;;;19.80;99.90;;;;;;5013768;28;20500;-68
2021/08/25 11:28:06;;;;;;;6.37;3.43;;;20.00;99.90;;;;;;5012989;28;20431;-69
2021/08/25 11:30:46;;;;;;;4.73;3.60;;;19.80;99.90;;;;;;5011744;28;20408;-68
2021/08/25 11:33:12;;;;;;;3.73;3.33;;;19.80;99.90;;;;;;5012759;28;20431;-68
2021/08/25 11:35:52;;;;;;;7.83;3.33;;;19.90;99.90;;;;;;5012835;28;20956;-68
2021/08/25 11:38:26;;;;;;;3.80;2.83;;;19.90;99.90;;;;;;5012691;28;20490;-69
2021/08/25 11:41:00;;;;;;;3.90;2.53;;;20.20;99.90;;;;;;5012538;28;20415;-70
2021/08/25 11:44:11;;;;;;;9.53;3.30;;;20.60;99.90;;;;;;5010165;28;20504;-70
2021/08/25 11:46:40;;;;;;;3.53;3.00;;;20.40;99.90;;;;;;5011576;28;20404;-69
2021/08/25 11:49:14;;;;;;;4.23;2.70;;;20.00;99.90;;;;;;5012309;28;20920;-68
2021/08/25 11:52:02;;;;;;;4.33;3.10;;;20.20;99.90;;;;;;5012302;28;20415;-69
2021/08/25 11:54:44;;;;;;;4.20;2.47;;;20.20;99.90;;;;;;5012217;28;20492;-69
2021/08/25 11:57:36;;;;;;;4.10;2.83;;;20.30;99.90;;;;;;5012255;28;20433;-69
2021/08/25 12:00:12;;;;;;;3.17;2.50;;;20.30;99.90;;;;;;5010858;28;20416;-69
2021/08/25 12:03:02;;;;;;;5.23;3.20;;;20.40;99.90;;;;;;5012180;28;20441;-68
2021/08/25 12:05:57;;;;;;;3.17;2.73;;;20.40;99.90;;;;;;5012063;28;20412;-68
2021/08/25 12:08:58;;;;;;;4.30;3.00;;;20.70;99.90;;;;;;5012396;28;20880;-69
2021/08/25 12:11:59;;;;;;;3.60;2.60;;;20.80;99.90;;;;;;5012457;28;20422;-70
2021/08/25 12:14:27;;;;;;;2.80;2.47;;;21.10;99.90;;;;;;5012137;28;20497;-71
2021/08/25 12:17:22;;;;;;;5.47;3.30;;;21.40;99.90;;;;;;5011768;28;20785;-69
2021/08/25 12:20:14;;;;;;;5.50;3.30;;;21.20;99.90;;;;;;4979263;28;20883;-69
2021/08/25 12:22:44;;;;;;;4.97;3.13;;;21.40;99.90;;;;;;4992320;28;20429;-69
2021/08/25 12:25:49;;;;;;;8.63;3.53;;;21.40;99.90;;;;;;4992606;28;20403;-68
2021/08/25 12:28:29;;;;;;;4.87;2.77;;;21.40;99.90;;;;;;4992947;28;20443;-71
2021/08/25 12:31:09;;;;;;;4.37;3.10;;;21.40;99.90;;;;;;4991259;28;20486;-70
2021/08/25 12:33:35;;;;;;;6.23;3.90;;;21.50;99.90;;;;;;4992600;28;20437;-69
2021/08/25 12:36:25;;;;;;;6.03;3.73;;;21.30;99.90;;;;;;4992402;28;20456;-69
2021/08/25 12:38:55;;;;;;;4.43;3.07;;;21.30;99.90;;;;;;4992493;28;20553;-70
2021/08/25 12:41:24;;;;;;;4.70;2.90;;;21.50;99.90;;;;;;4991139;28;20414;-70
2021/08/25 12:43:50;;;;;;;4.70;3.40;;;21.40;99.90;;;;;;4992174;28;20855;-71
2021/08/25 12:46:17;;;;;;;6.93;3.80;;;21.50;99.90;;;;;;4992445;28;20408;-71
2021/08/25 12:48:42;;;;;;;12.23;4.40;;;21.40;99.90;;;;;;4992385;28;20405;-71
2021/08/25 12:51:09;;;;;;;5.77;3.37;;;21.60;99.90;;;;;;4992214;28;20405;-71
2021/08/25 12:53:34;;;;;;;6.33;3.83;;;21.10;99.90;;;;;;4992345;28;20608;-71
2021/08/25 12:56:00;;;;;;;4.27;3.33;;;21.20;99.90;;;;;;4992059;28;20408;-70
2021/08/25 12:58:25;;;;;;;4.10;3.20;;;21.30;99.90;;;;;;4991796;28;20206;-71
2021/08/25 13:00:51;;;;;;;5.00;2.67;;;21.40;99.90;;;;;;4992095;28;20383;-70
2021/08/25 13:03:16;;;;;;;3.67;2.90;;;21.30;99.90;;;;;;4991863;28;20189;-70
2021/08/25 13:05:42;;;;;;;4.50;2.93;;;21.40;99.90;;;;;;4991916;28;20181;-71
2021/08/25 13:08:07;;;;;;;4.03;3.03;;;21.30;99.90;;;;;;4991953;28;20170;-70
2021/08/25 13:10:32;;;;;;;5.10;3.50;;;21.20;99.90;;;;;;4992306;28;20182;-70
2021/08/25 13:12:58;;;;;;;3.63;3.10;;;21.40;99.90;;;;;;4990676;28;20374;-71